»·PEaware :: AAL1048 KDCA-KJFK

AAL1048 :: KDCA-KJFK

FLIGHT INFORMATION

Flight Status: Arrived
Operator:
American Airlines
More flights by this operator :: More flights under this callsign
Pilot: Adam A. (5112)
Aircraft: MCDONNELL-DOUGLAS MD-88
(MD88)
More flights by this aircraft type
Origin: KDCA Ronald Reagan Washington Natl
United States
Destination: KJFK Kennedy Intl
United States
More flights between these airports :: More routes between these airports
Route: SIE CAMRN4
File this flight plan on PilotEdge
Remarks:
Altitude:
(Current/Filed)
17,000ft
Speed:
(Current/Filed)
440kts
Departed: 12-Dec-15 06:16 PM
Arrived: 12-Dec-15 07:01 PM
Distance/Time
Traveled:
185nm/0:44
Distance/Time
To Go:
Arrived

Flight Plot

Page will automatically refresh every two minutes.


Map Options




Map Legend


Flown Route
Filed Route
Departure Airport
Arrival Airport
Navaid (VOR, NDB)
Fix

Horizontal Profiles

Position Reports

Time Latitude Longitude Heading Altitude Ground
Speed
12-Dec-15 18:04 38.852600 -77.041704 165 21ft 0kts
12-Dec-15 18:05 38.852600 -77.041704 165 21ft 0kts
12-Dec-15 18:06 38.852600 -77.041704 165 21ft 0kts
12-Dec-15 18:07 38.852600 -77.041704 165 21ft 0kts
12-Dec-15 18:08 38.852495 -77.041662 159 21ft 0kts
12-Dec-15 18:09 38.852918 -77.041938 70 21ft 8kts
12-Dec-15 18:10 38.857165 -77.040489 355 21ft 15kts
12-Dec-15 18:11 38.859439 -77.040583 15 21ft 5kts
12-Dec-15 18:12 38.860314 -77.038632 168 21ft 0kts
12-Dec-15 18:13 38.857446 -77.038333 174 21ft 82kts
12-Dec-15 18:14 38.816620 -77.024291 126 1952ft 201kts
12-Dec-15 18:15 38.826411 -76.942694 70 5126ft 264kts
12-Dec-15 18:16 38.849865 -76.859914 51 8091ft 292kts
12-Dec-15 18:17 38.889515 -76.770253 77 10132ft 340kts
12-Dec-15 18:18 38.905315 -76.648897 82 13062ft 351kts
12-Dec-15 18:19 38.919100 -76.523315 82 15625ft 367kts
12-Dec-15 18:20 38.933284 -76.393335 81 16776ft 371kts
12-Dec-15 18:21 38.948489 -76.252488 81 16783ft 419kts
12-Dec-15 18:22 38.963209 -76.114396 81 17017ft 443kts
12-Dec-15 18:23 38.978828 -75.966448 81 17014ft 432kts
12-Dec-15 18:24 38.994277 -75.820528 81 16985ft 428kts
12-Dec-15 18:25 39.009100 -75.676781 81 16981ft 427kts
12-Dec-15 18:26 39.023723 -75.532891 81 16981ft 427kts
12-Dec-15 18:27 39.038307 -75.387521 81 16982ft 427kts
12-Dec-15 18:28 39.051953 -75.249821 82 16769ft 391kts
12-Dec-15 18:29 39.065342 -75.112971 82 16771ft 393kts
12-Dec-15 18:30 39.078723 -74.974519 82 16771ft 393kts
12-Dec-15 18:31 39.092268 -74.835646 81 16769ft 393kts
12-Dec-15 18:32 39.160659 -74.730590 40 16771ft 393kts
12-Dec-15 18:33 39.244282 -74.639763 40 16771ft 393kts
12-Dec-15 18:34 39.326983 -74.550001 40 16771ft 393kts
12-Dec-15 18:35 39.409283 -74.460393 40 16771ft 393kts
12-Dec-15 18:36 39.492654 -74.369329 40 16771ft 393kts
12-Dec-15 18:37 39.575866 -74.278141 40 16771ft 393kts
12-Dec-15 18:38 39.659299 -74.186421 40 17000ft 394kts
12-Dec-15 18:39 39.742815 -74.094300 40 16999ft 394kts
12-Dec-15 18:40 39.828154 -73.999835 40 14928ft 396kts
12-Dec-15 18:40 39.904388 -73.940841 28 13087ft 375kts
12-Dec-15 18:41 39.996029 -73.890368 352 10878ft 354kts
12-Dec-15 18:42 40.078301 -73.944669 331 10011ft 298kts
12-Dec-15 18:44 40.149982 -73.991102 345 10042ft 288kts
12-Dec-15 18:45 40.229026 -74.018317 345 8199ft 297kts
12-Dec-15 18:46 40.306189 -74.043129 5 7126ft 261kts
12-Dec-15 18:47 40.367371 -74.005828 27 6027ft 240kts
12-Dec-15 18:48 40.362875 -73.935835 129 4393ft 236kts
12-Dec-15 18:49 40.379115 -73.875817 8 2811ft 232kts
12-Dec-15 18:50 40.437439 -73.870443 359 2395ft 171kts
12-Dec-15 18:51 40.479125 -73.871225 359 1415ft 141kts
12-Dec-15 18:52 40.522367 -73.869353 18 1065ft 188kts
12-Dec-15 18:53 40.561459 -73.815860 45 1617ft 245kts
12-Dec-15 18:54 40.619726 -73.772726 36 1282ft 217kts
12-Dec-15 18:55 40.657105 -73.727990 26 1243ft 164kts
12-Dec-15 18:56 40.666163 -73.754592 195 783ft 158kts
12-Dec-15 18:57 40.631358 -73.778277 211 19ft 86kts
12-Dec-15 18:58 40.630281 -73.780982 32 19ft 37kts
12-Dec-15 18:59 40.637051 -73.776791 19 19ft 16kts
12-Dec-15 19:00 40.656382 -73.799342 259 393ft 208kts
12-Dec-15 19:01 40.642407 -73.761491 4 506ft 189kts
12-Dec-15 19:02 40.662346 -73.797234 302 19ft 87kts

Navigation Log

Ident Type
Flight plan parsing failed, navigation log unavailable